createdAt,value
2018-11-23T00:02:17.489Z,64.10
2018-11-23T00:04:52.243Z,63.60
2018-11-23T00:07:30.407Z,66.10
2018-11-23T00:10:11.526Z,64.60
2018-11-23T00:12:46.832Z,65.90
2018-11-23T00:15:27.274Z,64.60
2018-11-23T00:18:02.069Z,65.00
2018-11-23T00:20:38.025Z,65.30
2018-11-23T00:23:18.881Z,66.30
2018-11-23T00:25:58.151Z,65.10
2018-11-23T00:28:34.089Z,65.70
2018-11-23T00:31:09.576Z,65.90
2018-11-23T00:33:49.910Z,65.80
2018-11-23T00:36:24.289Z,64.40
2018-11-23T00:38:59.271Z,63.20
2018-11-23T00:41:33.552Z,64.30
2018-11-23T00:44:12.557Z,63.60
2018-11-23T00:46:47.294Z,65.50
2018-11-23T00:49:23.192Z,64.10
2018-11-23T00:51:58.882Z,62.40
2018-11-23T00:54:33.685Z,63.50
2018-11-23T00:57:10.310Z,65.90
2018-11-23T00:59:44.969Z,63.80
2018-11-23T01:02:21.316Z,63.80
2018-11-23T01:04:58.023Z,64.50
2018-11-23T01:07:32.970Z,63.80
2018-11-23T01:10:09.137Z,63.70
2018-11-23T01:13:03.768Z,65.60
2018-11-23T01:15:44.060Z,64.00
2018-11-23T01:18:21.914Z,62.70
2018-11-23T01:20:58.219Z,63.00
2018-11-23T01:23:35.521Z,61.70
2018-11-23T01:26:10.306Z,61.10
2018-11-23T01:28:45.974Z,62.20
2018-11-23T01:31:21.685Z,62.70
2018-11-23T01:33:59.996Z,62.00
2018-11-23T01:36:37.204Z,61.60
2018-11-23T01:39:13.589Z,60.90
2018-11-23T01:41:48.213Z,61.40
2018-11-23T01:44:29.955Z,62.10
2018-11-23T01:47:05.110Z,60.70
2018-11-23T01:49:41.423Z,63.10
2018-11-23T01:52:17.932Z,62.00
2018-11-23T01:55:00.140Z,63.30
2018-11-23T01:57:41.823Z,62.50
2018-11-23T02:00:24.008Z,61.80
2018-11-23T02:03:01.130Z,65.80
2018-11-23T02:05:38.631Z,63.80
2018-11-23T02:08:13.677Z,63.20
2018-11-23T02:10:51.292Z,62.00
2018-11-23T02:13:31.492Z,61.40
2018-11-23T02:16:06.892Z,62.00
2018-11-23T02:18:42.681Z,62.20
2018-11-23T02:21:20.556Z,61.00
2018-11-23T02:23:58.047Z,61.10
2018-11-23T02:26:34.049Z,61.50
2018-11-23T02:29:11.170Z,62.70
2018-11-23T02:31:45.702Z,61.50
2018-11-23T02:34:20.463Z,60.70
2018-11-23T02:36:55.248Z,61.10
2018-11-23T02:39:30.397Z,60.10
2018-11-23T02:42:09.139Z,59.00
2018-11-23T02:44:43.595Z,60.60
2018-11-23T02:47:17.582Z,61.00
2018-11-23T02:49:51.797Z,59.90
2018-11-23T02:52:33.555Z,61.50
2018-11-23T02:55:08.905Z,59.50
2018-11-23T02:57:43.301Z,59.00
2018-11-23T03:00:19.621Z,59.90
2018-11-23T03:02:54.501Z,60.00
2018-11-23T03:05:29.817Z,60.50
2018-11-23T03:08:04.211Z,59.40
2018-11-23T03:10:40.554Z,59.80
2018-11-23T03:13:15.686Z,58.40
2018-11-23T03:15:51.128Z,58.00
2018-11-23T03:18:26.070Z,59.00
2018-11-23T03:21:00.988Z,58.00
2018-11-23T03:23:40.811Z,57.70
2018-11-23T03:26:16.264Z,57.60
2018-11-23T03:28:51.063Z,57.60
2018-11-23T03:31:26.881Z,57.60
2018-11-23T03:34:05.800Z,57.80
2018-11-23T03:36:40.727Z,58.40
2018-11-23T03:39:15.409Z,57.40
2018-11-23T03:41:58.568Z,57.30
2018-11-23T03:44:34.346Z,57.90
2018-11-23T03:47:08.901Z,58.20
2018-11-23T03:53:26.048Z,58.00
2018-11-23T03:56:01.103Z,57.70
2018-11-23T03:58:35.632Z,57.80
2018-11-23T04:01:11.046Z,56.90
2018-11-23T04:03:45.796Z,56.80
2018-11-23T04:06:20.652Z,57.00
2018-11-23T04:08:55.599Z,56.70
2018-11-23T04:11:31.000Z,58.80
2018-11-23T04:14:05.924Z,58.50
2018-11-23T04:16:40.719Z,58.50
2018-11-23T04:19:23.317Z,57.60
2018-11-23T04:21:56.447Z,58.30
2018-11-23T04:24:34.086Z,56.70
2018-11-23T04:27:10.762Z,56.10
2018-11-23T04:29:46.277Z,56.30
2018-11-23T04:32:21.033Z,56.90
2018-11-23T04:34:55.752Z,57.20
2018-11-23T04:37:32.104Z,58.40
2018-11-23T04:40:08.821Z,56.30
2018-11-23T04:42:43.390Z,57.40
2018-11-23T04:45:17.689Z,58.80
2018-11-23T04:47:58.941Z,57.70
2018-11-23T04:50:42.856Z,58.00
2018-11-23T04:53:18.621Z,57.30
2018-11-23T04:55:53.014Z,56.50
2018-11-23T04:58:29.565Z,56.10
2018-11-23T05:01:06.816Z,57.60
2018-11-23T05:03:42.305Z,58.30
2018-11-23T05:06:20.503Z,58.30
2018-11-23T05:08:55.626Z,58.10
2018-11-23T05:11:30.727Z,57.70
2018-11-23T05:14:05.167Z,57.80
2018-11-23T05:16:39.831Z,58.70
2018-11-23T05:19:15.521Z,58.30
2018-11-23T05:21:51.259Z,58.30
2018-11-23T05:24:26.709Z,57.20
2018-11-23T05:27:02.023Z,58.10
2018-11-23T05:29:40.788Z,57.60
2018-11-23T05:32:16.027Z,58.30
2018-11-23T05:34:51.608Z,57.70
2018-11-23T05:37:26.476Z,57.70
2018-11-23T05:40:01.474Z,58.40
2018-11-23T05:42:36.662Z,57.80
2018-11-23T05:45:13.876Z,56.90
2018-11-23T05:47:48.888Z,57.10
2018-11-23T05:50:30.968Z,57.80
2018-11-23T05:53:04.955Z,57.80
2018-11-23T05:55:40.253Z,57.70
2018-11-23T05:58:21.909Z,57.40
2018-11-23T06:00:56.301Z,57.30
2018-11-23T06:03:33.133Z,57.10
2018-11-23T06:06:09.254Z,56.60
2018-11-23T06:08:46.472Z,56.90
2018-11-23T06:11:21.493Z,57.00
2018-11-23T06:13:56.758Z,57.30
2018-11-23T06:16:37.224Z,56.70
2018-11-23T06:19:24.853Z,56.90
2018-11-23T06:22:02.983Z,57.20
2018-11-23T06:24:39.149Z,56.60
2018-11-23T06:27:14.771Z,56.50
2018-11-23T06:29:49.526Z,56.70
2018-11-23T06:32:58.554Z,56.80
2018-11-23T06:35:32.789Z,57.00
2018-11-23T06:38:07.848Z,57.40
2018-11-23T06:40:44.943Z,57.60
2018-11-23T06:43:19.993Z,57.10
2018-11-23T06:45:55.203Z,57.30
2018-11-23T06:48:35.412Z,56.80
2018-11-23T06:51:12.182Z,57.00
2018-11-23T06:53:51.906Z,57.20
2018-11-23T06:56:33.001Z,57.60
2018-11-23T06:59:12.115Z,59.30
2018-11-23T07:01:53.673Z,58.10
2018-11-23T07:04:33.747Z,57.70
2018-11-23T07:07:08.783Z,57.20
2018-11-23T07:09:44.791Z,57.40
2018-11-23T07:12:23.679Z,57.10
2018-11-23T07:14:58.715Z,57.20
2018-11-23T07:17:42.426Z,57.30
2018-11-23T07:20:18.734Z,57.50
2018-11-23T07:22:54.973Z,57.10
2018-11-23T07:25:37.614Z,57.20
2018-11-23T07:28:16.520Z,57.30
2018-11-23T07:30:51.840Z,57.90
2018-11-23T07:33:28.383Z,58.10
2018-11-23T07:36:05.843Z,58.10
2018-11-23T07:38:41.387Z,58.10
2018-11-23T07:41:53.312Z,58.30
2018-11-23T07:44:29.976Z,58.50
2018-11-23T07:47:04.845Z,58.50
2018-11-23T07:49:40.155Z,58.30
2018-11-23T07:52:19.437Z,58.40
2018-11-23T07:54:55.341Z,58.70
2018-11-23T07:57:41.908Z,58.80
2018-11-23T08:00:26.432Z,59.20
2018-11-23T08:03:04.061Z,59.40
2018-11-23T08:05:43.316Z,59.10
2018-11-23T08:08:19.677Z,59.20
2018-11-23T08:10:56.059Z,59.10
2018-11-23T08:13:31.068Z,59.60
2018-11-23T08:16:11.209Z,59.60
2018-11-23T08:18:47.933Z,59.40
2018-11-23T08:21:34.279Z,59.70
2018-11-23T08:24:13.268Z,59.50
2018-11-23T08:31:31.911Z,59.60
2018-11-23T08:34:10.573Z,58.70
2018-11-23T08:43:14.709Z,59.30
2018-11-23T08:45:57.126Z,59.10
2018-11-23T08:48:41.820Z,59.80
2018-11-23T08:51:30.702Z,60.80
2018-11-23T08:54:20.473Z,61.90
2018-11-23T09:00:13.996Z,60.70
2018-11-23T09:02:58.347Z,60.70
2018-11-23T09:05:49.169Z,63.70
2018-11-23T09:08:30.916Z,62.40
2018-11-23T09:11:16.441Z,61.20
2018-11-23T09:14:00.025Z,60.90
2018-11-23T09:16:42.022Z,63.50
2018-11-23T09:22:26.401Z,62.20
2018-11-23T09:25:17.343Z,62.80
2018-11-23T09:28:07.054Z,61.50
2018-11-23T09:30:50.959Z,61.30
2018-11-23T09:33:36.601Z,61.10
2018-11-23T09:36:19.903Z,61.80
2018-11-23T09:39:02.576Z,63.30
2018-11-23T09:41:45.038Z,61.90
2018-11-23T09:44:25.233Z,62.50
2018-11-23T09:47:10.207Z,63.90
2018-11-23T09:49:49.217Z,62.90
2018-11-23T09:52:32.733Z,63.30
2018-11-23T09:55:26.085Z,64.80
2018-11-23T09:58:08.137Z,65.10
2018-11-23T10:00:51.165Z,64.70
2018-11-23T10:03:31.948Z,66.30
2018-11-23T10:06:19.984Z,65.50
2018-11-23T10:09:00.260Z,64.70
2018-11-23T10:11:48.444Z,64.50
2018-11-23T10:14:33.166Z,66.00
2018-11-23T10:17:12.435Z,65.80
2018-11-23T10:19:58.073Z,66.00
2018-11-23T10:22:39.711Z,64.80
2018-11-23T10:25:21.469Z,64.80
2018-11-23T10:28:25.222Z,64.50
2018-11-23T10:31:06.661Z,65.10
2018-11-23T10:33:45.506Z,65.30
2018-11-23T10:36:31.412Z,66.40
2018-11-23T10:39:17.711Z,64.60
2018-11-23T10:42:03.636Z,64.70
2018-11-23T10:44:53.395Z,64.70
2018-11-23T10:47:38.237Z,64.10
2018-11-23T10:50:30.185Z,64.80
2018-11-23T10:53:19.658Z,65.40
2018-11-23T10:59:07.414Z,63.90
2018-11-23T11:02:06.641Z,63.90
2018-11-23T11:06:54.650Z,64.10
2018-11-23T11:09:41.363Z,65.60
2018-11-23T11:12:28.533Z,65.00
2018-11-23T11:15:08.660Z,64.30
2018-11-23T11:17:51.812Z,64.10
2018-11-23T11:20:31.396Z,64.30
2018-11-23T11:23:13.124Z,64.50
2018-11-23T11:25:55.279Z,63.60
2018-11-23T11:28:37.045Z,64.00
2018-11-23T11:34:20.395Z,65.10
2018-11-23T11:37:10.926Z,63.40
2018-11-23T11:39:54.793Z,64.10
2018-11-23T11:42:40.155Z,63.60
2018-11-23T11:45:26.451Z,65.10
2018-11-23T11:48:12.252Z,65.00
2018-11-23T11:57:20.591Z,64.70
2018-11-23T12:00:00.314Z,65.40
2018-11-23T12:02:40.756Z,64.60
2018-11-23T12:05:27.571Z,66.30
2018-11-23T12:08:06.511Z,65.00
2018-11-23T12:10:46.441Z,64.30
2018-11-23T12:13:26.176Z,64.50
2018-11-23T12:16:15.762Z,65.10
2018-11-23T12:19:08.094Z,64.40
2018-11-23T13:25:01.472Z,64.40
2018-11-23T13:27:43.615Z,65.90
2018-11-23T13:30:25.268Z,64.60
2018-11-23T13:33:08.730Z,65.00
2018-11-23T13:35:49.035Z,66.40
2018-11-23T13:38:28.376Z,64.50
2018-11-23T13:41:07.805Z,63.90
2018-11-23T13:43:49.971Z,64.10
2018-11-23T13:46:31.010Z,65.00
2018-11-23T13:49:10.291Z,64.40
2018-11-23T13:56:07.904Z,64.60
2018-11-23T14:01:44.172Z,65.10
2018-11-23T14:04:27.885Z,67.70
2018-11-23T14:07:06.504Z,66.30
2018-11-23T14:09:52.499Z,64.30
2018-11-23T14:15:25.492Z,63.50
2018-11-23T14:18:05.320Z,63.40
2018-11-23T14:20:50.681Z,62.90
2018-11-23T14:23:35.525Z,63.40
2018-11-23T14:26:22.384Z,63.80
2018-11-23T14:29:09.008Z,63.70
2018-11-23T14:31:49.862Z,63.40
2018-11-23T14:34:44.898Z,63.70
2018-11-23T14:37:26.324Z,64.00
2018-11-23T14:40:07.985Z,63.70
2018-11-23T14:42:54.210Z,63.80
2018-11-23T14:45:36.674Z,64.10
2018-11-23T14:48:16.949Z,64.10
2018-11-23T14:51:08.527Z,64.00
2018-11-23T14:53:57.195Z,64.10
2018-11-23T14:56:42.936Z,64.20
2018-11-23T14:59:27.629Z,64.40
2018-11-23T15:02:10.333Z,64.30
2018-11-23T15:04:55.810Z,64.40
2018-11-23T15:07:49.719Z,64.30
2018-11-23T15:10:39.517Z,64.60
2018-11-23T15:13:21.648Z,64.70
2018-11-23T15:16:04.829Z,64.60
2018-11-23T15:18:48.092Z,64.80
2018-11-23T15:21:36.045Z,65.40
2018-11-23T15:24:23.002Z,64.20
2018-11-23T15:27:08.988Z,64.30
2018-11-23T15:29:57.279Z,64.00
2018-11-23T15:32:43.624Z,64.30
2018-11-23T15:35:32.859Z,64.10
2018-11-23T15:38:32.089Z,64.10
2018-11-23T15:41:17.360Z,64.30
2018-11-23T15:44:05.247Z,64.00
2018-11-23T15:46:44.918Z,63.80
2018-11-23T15:49:27.871Z,64.00
2018-11-23T15:52:11.882Z,64.30
2018-11-23T15:54:53.513Z,64.40
2018-11-23T15:57:37.415Z,64.20
2018-11-23T16:00:28.572Z,64.00
2018-11-23T16:03:20.858Z,64.00
2018-11-23T16:06:07.986Z,63.90
2018-11-23T16:08:49.029Z,64.00
2018-11-23T16:11:39.526Z,64.10
2018-11-23T16:14:19.335Z,64.10
2018-11-23T16:16:58.619Z,64.20
2018-11-23T16:19:46.091Z,64.00
2018-11-23T16:22:28.195Z,64.20
2018-11-23T16:25:13.974Z,64.30
2018-11-23T16:27:57.493Z,64.60
2018-11-23T16:30:40.792Z,64.50
2018-11-23T16:33:24.704Z,64.50
2018-11-23T16:38:48.513Z,64.10
2018-11-23T16:41:27.610Z,64.30
2018-11-23T16:44:07.474Z,64.40
2018-11-23T16:46:49.431Z,64.60
2018-11-23T16:49:31.724Z,64.70
2018-11-23T16:52:11.335Z,64.80
2018-11-23T16:54:51.761Z,65.10
2018-11-23T16:57:30.291Z,65.20
2018-11-23T17:00:11.329Z,65.20
2018-11-23T17:02:50.161Z,65.10
2018-11-23T17:05:34.629Z,65.30
2018-11-23T17:08:12.720Z,65.20
2018-11-23T17:10:50.930Z,65.10
2018-11-23T17:13:30.345Z,65.40
2018-11-23T17:16:08.228Z,65.50
2018-11-23T17:18:46.304Z,65.50
2018-11-23T17:21:24.492Z,65.60
2018-11-23T17:24:06.944Z,65.70
2018-11-23T17:26:46.140Z,65.80
2018-11-23T17:29:23.367Z,66.30
2018-11-23T17:32:04.128Z,66.20
2018-11-23T17:34:49.468Z,66.40
2018-11-23T17:37:29.861Z,66.40
2018-11-23T17:40:24.923Z,66.50
2018-11-23T17:43:15.935Z,66.40
2018-11-23T17:45:55.829Z,66.60
2018-11-23T17:48:34.023Z,66.60
2018-11-23T17:51:16.569Z,66.60
2018-11-23T17:53:57.851Z,66.80
2018-11-23T17:56:36.539Z,67.00
2018-11-23T17:59:16.919Z,67.10
2018-11-23T18:03:17.967Z,67.00
2018-11-23T18:05:56.811Z,67.20
2018-11-23T18:08:38.685Z,67.60
2018-11-23T18:11:12.055Z,67.50
2018-11-23T18:13:49.097Z,67.50
2018-11-23T18:16:26.406Z,67.70
2018-11-23T18:19:03.948Z,67.80
2018-11-23T18:21:43.173Z,67.70
2018-11-23T18:24:21.210Z,67.80
2018-11-23T18:26:59.844Z,67.80
2018-11-23T18:29:37.518Z,67.90
2018-11-23T18:32:15.328Z,67.80
2018-11-23T18:35:02.101Z,67.80
2018-11-23T18:37:39.898Z,67.70
2018-11-23T18:40:18.767Z,67.70
2018-11-23T18:42:56.590Z,67.80
2018-11-23T18:45:34.803Z,67.80
2018-11-23T18:48:13.257Z,67.90
2018-11-23T18:50:50.909Z,68.10
2018-11-23T18:53:29.331Z,68.00
2018-11-23T18:56:09.419Z,68.20
2018-11-23T18:58:48.317Z,68.10
2018-11-23T19:01:26.288Z,68.30
2018-11-23T19:04:04.457Z,68.50
2018-11-23T19:06:42.531Z,68.40
2018-11-23T19:12:03.756Z,68.70
2018-11-23T19:14:41.534Z,68.70
2018-11-23T19:17:19.876Z,68.80
2018-11-23T19:19:57.535Z,68.90
2018-11-23T19:22:37.556Z,69.00
2018-11-23T19:25:14.800Z,69.20
2018-11-23T19:27:52.504Z,69.00
2018-11-23T19:30:30.389Z,69.20
2018-11-23T19:33:08.331Z,69.20
2018-11-23T19:35:45.976Z,69.30
2018-11-23T19:38:25.552Z,69.40
2018-11-23T19:41:04.019Z,69.40
2018-11-23T19:43:41.799Z,69.60
2018-11-23T19:46:21.386Z,69.60
2018-11-23T19:48:59.713Z,69.70
2018-11-23T19:51:37.410Z,69.70
2018-11-23T19:54:15.231Z,69.70
2018-11-23T19:56:52.306Z,69.60
2018-11-23T19:59:31.012Z,69.70
2018-11-23T20:02:09.010Z,69.90
2018-11-23T20:04:49.221Z,69.80
2018-11-23T20:07:26.455Z,69.80
2018-11-23T20:10:04.341Z,69.80
2018-11-23T20:12:42.844Z,69.90
2018-11-23T20:15:22.076Z,70.00
2018-11-23T20:18:00.876Z,70.10
2018-11-23T20:20:38.878Z,70.20
2018-11-23T20:23:18.128Z,70.10
2018-11-23T20:25:56.355Z,70.10
2018-11-23T20:28:35.960Z,69.90
2018-11-23T20:31:14.192Z,70.00
2018-11-23T20:33:53.330Z,70.20
2018-11-23T20:36:30.769Z,70.10
2018-11-23T20:39:12.180Z,70.20
2018-11-23T20:41:50.321Z,70.40
2018-11-23T20:44:27.621Z,70.30
2018-11-23T20:47:09.270Z,70.20
2018-11-23T20:49:47.579Z,70.30
2018-11-23T20:52:25.114Z,70.30
2018-11-23T20:55:03.022Z,70.10
2018-11-23T20:57:42.027Z,70.30
2018-11-23T21:00:20.659Z,70.20
2018-11-23T21:02:59.528Z,70.20
2018-11-23T21:05:40.181Z,70.30
2018-11-23T21:08:18.713Z,70.50
2018-11-23T21:10:56.152Z,71.20
2018-11-23T21:13:34.642Z,70.60
2018-11-23T21:16:12.906Z,70.70
2018-11-23T21:18:50.410Z,70.80
2018-11-23T21:21:31.798Z,70.90
2018-11-23T21:24:10.825Z,71.00
2018-11-23T21:26:49.702Z,71.10
2018-11-23T21:29:28.819Z,71.10
2018-11-23T21:32:06.273Z,71.50
2018-11-23T21:34:44.079Z,71.50
2018-11-23T21:37:21.909Z,71.20
2018-11-23T21:39:59.761Z,71.10
2018-11-23T21:42:38.933Z,71.10
2018-11-23T21:45:20.258Z,71.20
2018-11-23T21:47:59.002Z,71.30
2018-11-23T21:50:36.191Z,71.30
2018-11-23T21:53:14.159Z,71.10
2018-11-23T21:55:53.279Z,71.20
2018-11-23T21:58:32.010Z,71.50
2018-11-23T22:01:09.824Z,71.30
2018-11-23T22:03:47.593Z,71.20
2018-11-23T22:06:24.804Z,71.20
2018-11-23T22:09:02.665Z,71.10
2018-11-23T22:11:40.040Z,72.00
2018-11-23T22:14:17.569Z,71.20
2018-11-23T22:16:55.152Z,71.20
2018-11-23T22:19:33.149Z,71.00
2018-11-23T22:22:14.162Z,70.90
2018-11-23T22:24:52.544Z,71.00
2018-11-23T22:27:31.743Z,71.20
2018-11-23T22:30:12.808Z,71.20
2018-11-23T22:32:51.898Z,71.30
2018-11-23T22:35:29.740Z,71.40
2018-11-23T22:38:07.252Z,71.70
2018-11-23T22:40:46.268Z,71.80
2018-11-23T22:43:24.283Z,71.90
2018-11-23T22:46:02.252Z,71.90
2018-11-23T22:48:38.973Z,72.10
2018-11-23T22:51:17.056Z,71.70
2018-11-23T22:53:55.742Z,72.90
2018-11-23T22:56:33.052Z,72.00
2018-11-23T22:59:10.965Z,71.70
2018-11-23T23:01:49.955Z,71.20
2018-11-23T23:04:29.370Z,73.50
2018-11-23T23:07:07.977Z,73.90
2018-11-23T23:09:46.008Z,72.60
2018-11-23T23:12:22.940Z,71.90
2018-11-23T23:15:00.705Z,71.40
2018-11-23T23:17:39.013Z,72.80
2018-11-23T23:20:17.580Z,73.70
2018-11-23T23:22:56.337Z,71.70
2018-11-23T23:25:33.892Z,71.20
2018-11-23T23:28:12.322Z,71.50
2018-11-23T23:30:53.399Z,72.70
2018-11-23T23:33:30.890Z,72.60
2018-11-23T23:36:07.720Z,74.20
2018-11-23T23:38:45.759Z,74.20
2018-11-23T23:41:24.535Z,73.50
2018-11-23T23:44:02.418Z,74.70
2018-11-23T23:46:41.365Z,72.30
2018-11-23T23:49:19.799Z,73.70
2018-11-23T23:51:57.746Z,74.60
2018-11-23T23:54:38.162Z,73.30
2018-11-23T23:57:16.389Z,71.90
2018-11-23T23:59:55.186Z,72.00
